Time;durP1;ratioP1;P1;durP2;ratioP2;P2;SDS_P1;SDS_P2;PMS_P1;PMS_P2;Temp;Humidity;BMP_temperature;BMP_pressure;BME280_temperature;BME280_humidity;BME280_pressure;Samples;Min_cycle;Max_cycle;Signal;HPM_P1;HPM_P2
2022/05/22 00:00:47;;;;;;;;;6.50;6.00;;;;;19.74;47.90;101155.03;5027611;28;61996;-58
2022/05/22 00:03:12;;;;;;;;;10.00;7.00;;;;;19.76;47.46;101152.31;5020753;28;45293;-58
2022/05/22 00:05:38;;;;;;;;;11.00;8.00;;;;;19.72;47.95;101144.50;5031168;28;45337;-58
2022/05/22 00:08:04;;;;;;;;;6.50;6.00;;;;;19.69;47.73;101139.38;5021143;28;45260;-58
2022/05/22 00:10:29;;;;;;;;;7.25;6.00;;;;;19.67;48.29;101137.72;5039008;28;46851;-58
2022/05/22 00:12:54;;;;;;;;;7.75;6.00;;;;;19.65;48.06;101137.81;5039035;28;45309;-58
2022/05/22 00:15:20;;;;;;;;;7.75;4.00;;;;;19.67;48.09;101143.91;5039119;28;61651;-58
2022/05/22 00:17:45;;;;;;;;;6.75;6.00;;;;;19.65;48.32;101153.75;5026843;28;45209;-58
2022/05/22 00:20:12;;;;;;;;;6.75;6.25;;;;;19.64;48.60;101151.22;5033007;28;63953;-58
2022/05/22 00:22:37;;;;;;;;;7.00;4.50;;;;;19.63;47.70;101141.53;5033290;28;45305;-58
2022/05/22 00:25:05;;;;;;;;;6.50;6.00;;;;;19.60;48.18;101139.03;5028112;28;63193;-58
2022/05/22 00:27:31;;;;;;;;;8.00;6.00;;;;;19.53;48.19;101139.41;5030308;28;45475;-59
2022/05/22 00:29:56;;;;;;;;;7.25;6.00;;;;;19.51;48.38;101145.72;5035955;28;46108;-59
2022/05/22 00:32:22;;;;;;;;;8.50;6.75;;;;;19.48;48.57;101136.16;5035890;28;66297;-58
2022/05/22 00:34:47;;;;;;;;;10.00;7.00;;;;;19.44;48.55;101139.94;5018885;28;63562;-59
2022/05/22 00:37:13;;;;;;;;;4.75;4.25;;;;;19.40;49.08;101148.16;5022366;28;45516;-59
2022/05/22 00:39:38;;;;;;;;;6.75;5.50;;;;;19.37;48.82;101137.72;5031669;28;45839;-59
2022/05/22 00:42:16;;;;;;;;;8.25;6.00;;;;;19.34;48.62;101134.31;5030008;28;65234;-59
2022/05/22 00:44:42;;;;;;;;;8.25;7.00;;;;;19.31;49.13;101131.81;5029908;28;45524;-59
2022/05/22 00:47:07;;;;;;;;;7.50;5.75;;;;;19.29;48.43;101136.34;5034368;28;45284;-59
2022/05/22 00:49:33;;;;;;;;;9.50;6.00;;;;;19.25;48.80;101126.88;5034837;28;47117;-59
2022/05/22 00:52:05;;;;;;;;;7.00;7.00;;;;;19.21;49.48;101121.81;5029479;28;45399;-59
2022/05/22 00:54:47;;;;;;;;;6.00;5.50;;;;;19.21;49.00;101108.56;5037991;28;45194;-58
2022/05/22 00:57:20;;;;;;;;;8.50;5.25;;;;;19.21;49.82;101101.47;5037151;28;45341;-58
2022/05/22 00:59:52;;;;;;;;;9.50;7.00;;;;;19.19;49.34;101098.03;5031726;28;45356;-58
2022/05/22 01:02:18;;;;;;;;;8.25;6.25;;;;;19.17;49.37;101105.22;5025760;28;45931;-58
2022/05/22 01:04:45;;;;;;;;;8.00;6.00;;;;;19.19;49.09;101100.66;5022092;28;45399;-58
2022/05/22 01:07:11;;;;;;;;;4.75;4.75;;;;;19.19;50.02;101091.88;5029464;28;45593;-58
2022/05/22 01:09:37;;;;;;;;;7.00;6.00;;;;;19.21;49.57;101096.16;5030177;28;45478;-58
2022/05/22 01:12:06;;;;;;;;;7.00;5.50;;;;;19.22;49.72;101084.59;5028452;28;69828;-58
2022/05/22 01:14:33;;;;;;;;;7.25;5.00;;;;;19.22;49.82;101087.25;5031489;28;45445;-58
2022/05/22 01:17:03;;;;;;;;;10.00;5.25;;;;;19.19;49.62;101074.13;5037773;28;45498;-58
2022/05/22 01:19:29;;;;;;;;;9.00;6.25;;;;;19.18;49.84;101074.25;5033735;28;45279;-58
2022/05/22 01:21:57;;;;;;;;;9.50;6.25;;;;;19.16;49.67;101074.34;5029046;28;45235;-58
2022/05/22 01:24:22;;;;;;;;;5.75;5.25;;;;;19.15;49.68;101076.13;5036711;28;45233;-58
2022/05/22 01:26:49;;;;;;;;;6.50;5.00;;;;;19.14;49.79;101068.25;5028789;28;45234;-57
2022/05/22 01:29:15;;;;;;;;;9.50;7.00;;;;;19.17;49.72;101076.03;5021121;28;48157;-58
2022/05/22 01:31:40;;;;;;;;;6.00;6.00;;;;;19.16;49.79;101074.34;5033405;28;45391;-58
2022/05/22 01:34:05;;;;;;;;;10.00;7.00;;;;;19.18;49.77;101072.44;5041830;28;49884;-58
2022/05/22 01:36:31;;;;;;;;;9.50;7.00;;;;;19.18;49.86;101058.34;5023740;28;45337;-58
2022/05/22 01:38:56;;;;;;;;;8.50;7.00;;;;;19.17;49.90;101057.47;5038685;28;45424;-59
2022/05/22 01:41:22;;;;;;;;;6.75;5.00;;;;;19.22;49.49;101059.88;5037645;28;46520;-59
2022/05/22 01:43:47;;;;;;;;;7.00;6.00;;;;;19.22;49.61;101058.06;5039238;28;45515;-59
2022/05/22 01:46:13;;;;;;;;;7.25;7.25;;;;;19.19;49.51;101063.53;5036337;28;64679;-59
2022/05/22 01:48:38;;;;;;;;;5.50;5.00;;;;;19.19;49.67;101063.53;5036142;28;45265;-59
2022/05/22 01:51:05;;;;;;;;;4.50;4.50;;;;;19.20;49.83;101067.91;5033741;28;64738;-59
2022/05/22 01:53:30;;;;;;;;;8.50;5.75;;;;;19.20;49.68;101059.09;5040866;28;45269;-59
2022/05/22 01:55:56;;;;;;;;;7.50;6.00;;;;;19.21;49.63;101061.66;5032515;28;45533;-59
2022/05/22 01:58:21;;;;;;;;;5.75;5.00;;;;;19.20;49.54;101059.09;5021356;28;66175;-59
2022/05/22 02:00:46;;;;;;;;;6.00;4.50;;;;;19.20;49.60;101070.56;5027326;28;57428;-59
2022/05/22 02:03:12;;;;;;;;;7.25;5.00;;;;;19.17;49.55;101062.78;5040737;28;45336;-59
2022/05/22 02:05:37;;;;;;;;;6.75;4.50;;;;;19.16;49.52;101058.41;5033086;28;66453;-59
2022/05/22 02:10:52;;;;;;;;;5.00;4.25;;;;;19.11;49.66;101053.38;5033185;28;45420;-59
2022/05/22 02:13:20;;;;;;;;;5.00;4.00;;;;;19.10;49.53;101051.66;5027458;28;45353;-59
2022/05/22 02:15:46;;;;;;;;;6.00;5.75;;;;;19.06;49.63;101051.94;5021778;28;45573;-59
2022/05/22 02:18:11;;;;;;;;;5.00;4.00;;;;;19.03;49.95;101052.94;5037831;28;47124;-59
2022/05/22 02:20:37;;;;;;;;;6.00;4.50;;;;;19.03;49.87;101057.41;5039036;28;52527;-59
2022/05/22 02:23:02;;;;;;;;;5.75;5.25;;;;;19.03;50.14;101060.91;5035154;28;64591;-58
2022/05/22 02:25:33;;;;;;;;;5.75;5.00;;;;;19.03;49.91;101060.91;5031686;28;45907;-58
2022/05/22 02:27:59;;;;;;;;;5.25;5.25;;;;;19.04;49.83;101057.31;5037033;28;46240;-58
2022/05/22 02:30:28;;;;;;;;;5.00;5.00;;;;;19.03;49.78;101058.25;5032140;28;45333;-58
2022/05/22 02:32:53;;;;;;;;;6.50;5.75;;;;;19.01;49.93;101054.84;5038784;28;45535;-59
2022/05/22 02:35:19;;;;;;;;;6.00;4.75;;;;;19.01;50.08;101059.28;5033341;28;66104;-59
2022/05/22 02:37:46;;;;;;;;;7.75;6.00;;;;;18.99;49.85;101053.22;5033545;28;45430;-59
2022/05/22 02:40:13;;;;;;;;;11.75;6.75;;;;;18.96;50.26;101059.53;5030765;28;45738;-59
2022/05/22 02:42:40;;;;;;;;;6.75;6.50;;;;;18.95;50.04;101065.81;5038270;28;45295;-59
2022/05/22 02:45:06;;;;;;;;;10.00;6.00;;;;;18.93;50.14;101067.69;5035039;28;45553;-59
2022/05/22 02:47:33;;;;;;;;;6.50;5.25;;;;;18.89;50.08;101076.75;5034480;28;45936;-59
2022/05/22 02:49:58;;;;;;;;;5.50;5.00;;;;;18.90;50.17;101076.66;5029825;28;45446;-59
2022/05/22 02:52:24;;;;;;;;;6.50;5.00;;;;;18.88;50.31;101078.56;5036405;28;45491;-59
2022/05/22 02:54:49;;;;;;;;;9.50;6.00;;;;;18.86;50.25;101085.75;5032328;28;45502;-59
2022/05/22 02:57:16;;;;;;;;;9.00;7.25;;;;;18.83;50.66;101088.56;5038825;28;69654;-59
2022/05/22 02:59:41;;;;;;;;;9.75;6.50;;;;;18.81;50.56;101082.47;5040756;28;45354;-59
2022/05/22 03:02:07;;;;;;;;;7.75;7.00;;;;;18.76;50.77;101072.09;5035319;28;56921;-59
2022/05/22 03:04:32;;;;;;;;;10.00;7.25;;;;;18.80;50.13;101080.75;5040496;28;45530;-59
2022/05/22 03:06:58;;;;;;;;;11.00;8.50;;;;;18.76;50.69;101081.88;5027088;28;47099;-59
2022/05/22 03:09:23;;;;;;;;;10.00;9.25;;;;;18.73;50.64;101082.91;5034146;28;45353;-58
2022/05/22 03:11:49;;;;;;;;;10.75;8.50;;;;;18.71;50.73;101081.25;5028931;28;64568;-58
2022/05/22 03:14:14;;;;;;;;;12.50;10.00;;;;;18.69;50.46;101080.50;5031536;28;45269;-58
2022/05/22 03:16:39;;;;;;;;;14.00;10.00;;;;;18.63;50.70;101073.75;5033828;28;67994;-58
2022/05/22 03:19:05;;;;;;;;;3.00;1.00;;;;;18.60;51.05;101077.41;5029548;28;49338;-59
2022/05/22 03:21:30;;;;;;;;;18.00;13.75;;;;;18.58;51.18;101066.03;5034941;28;61127;-59
2022/05/22 03:23:55;;;;;;;;;12.75;11.00;;;;;18.57;50.75;101063.47;5038257;28;58577;-59
2022/05/22 03:26:21;;;;;;;;;11.75;11.00;;;;;18.54;50.86;101058.34;5027260;28;59101;-59
2022/05/22 03:28:46;;;;;;;;;18.75;12.50;;;;;18.50;50.71;101054.13;5029934;28;45299;-58
2022/05/22 03:31:12;;;;;;;;;12.25;11.25;;;;;18.45;51.26;101038.50;5038663;28;50433;-59
2022/05/22 03:33:37;;;;;;;;;17.25;11.50;;;;;18.44;51.53;101036.78;5035918;28;45434;-59
2022/05/22 03:36:04;;;;;;;;;11.25;9.75;;;;;18.41;51.65;101031.66;5025605;28;57131;-59
2022/05/22 03:38:30;;;;;;;;;18.00;10.50;;;;;18.39;51.78;101025.59;5023151;28;45428;-58
2022/05/22 03:40:55;;;;;;;;;13.50;11.00;;;;;18.36;51.51;101026.63;5024609;28;60737;-58
2022/05/22 03:43:20;;;;;;;;;12.25;9.00;;;;;18.36;52.04;101025.75;5027869;28;45442;-58
2022/05/22 03:45:46;;;;;;;;;11.75;9.00;;;;;18.35;52.04;101030.19;5033796;28;46125;-59
2022/05/22 03:48:12;;;;;;;;;15.50;10.00;;;;;18.34;51.89;101030.28;5028352;28;45278;-58
2022/05/22 03:50:37;;;;;;;;;11.00;9.00;;;;;18.32;52.16;101022.41;5035107;28;45378;-58
2022/05/22 03:53:03;;;;;;;;;11.25;8.25;;;;;18.33;52.13;101026.78;5035936;28;45385;-59
2022/05/22 03:55:29;;;;;;;;;9.25;7.00;;;;;18.34;51.81;101036.47;5035021;28;46288;-59
2022/05/22 03:57:55;;;;;;;;;14.50;11.25;;;;;18.31;52.13;101038.38;5033429;28;45158;-58
2022/05/22 04:00:23;;;;;;;;;13.00;10.75;;;;;18.31;51.91;101030.44;5032924;28;45519;-58
2022/05/22 04:02:48;;;;;;;;;13.25;9.75;;;;;18.29;51.91;101032.31;5027369;28;45518;-58
2022/05/22 04:05:14;;;;;;;;;16.00;10.50;;;;;18.27;52.01;101024.47;5039794;28;45396;-59
2022/05/22 04:07:42;;;;;;;;;10.50;10.25;;;;;18.26;52.17;101017.47;5030766;28;66048;-58
2022/05/22 04:10:09;;;;;;;;;6.75;6.00;;;;;18.27;52.07;101019.16;5031430;28;45460;-58
2022/05/22 04:12:36;;;;;;;;;7.75;7.75;;;;;18.26;52.22;101008.66;5031614;28;45474;-58
2022/05/22 04:15:03;;;;;;;;;7.50;7.25;;;;;18.25;52.10;101001.66;5031285;28;45289;-58
2022/05/22 04:17:28;;;;;;;;;7.75;7.00;;;;;18.26;51.93;101003.38;5039407;28;46136;-58
2022/05/22 04:19:53;;;;;;;;;8.75;7.25;;;;;18.24;52.17;101002.56;5037296;28;45457;-58
2022/05/22 04:22:19;;;;;;;;;7.50;5.25;;;;;18.25;52.02;101004.31;5034134;28;64750;-58
2022/05/22 04:27:28;;;;;;;;;9.00;6.00;;;;;18.20;51.86;101004.53;5033089;28;45908;-58
2022/05/22 04:29:53;;;;;;;;;7.00;7.00;;;;;18.17;52.38;100999.44;5029665;28;64955;-58
2022/05/22 04:32:19;;;;;;;;;7.00;6.00;;;;;18.17;52.47;101012.69;5037885;28;45267;-58
2022/05/22 04:34:45;;;;;;;;;15.00;10.75;;;;;18.12;52.19;101002.31;5039594;28;46165;-58
2022/05/22 04:37:10;;;;;;;;;7.00;6.00;;;;;18.16;52.23;101008.31;5035878;28;45407;-58
2022/05/22 04:39:36;;;;;;;;;8.25;8.00;;;;;18.15;51.87;101012.75;5030192;28;61903;-58
2022/05/22 04:42:01;;;;;;;;;7.50;6.00;;;;;18.10;52.34;100998.91;5034538;28;45434;-58
2022/05/22 04:44:26;;;;;;;;;11.00;6.25;;;;;18.14;52.02;101004.88;5028760;28;48302;-58
2022/05/22 04:46:52;;;;;;;;;7.00;7.00;;;;;18.13;52.25;101012.00;5036380;28;63841;-59
2022/05/22 04:49:17;;;;;;;;;7.25;7.25;;;;;18.13;52.76;101016.41;5039236;28;45316;-59
2022/05/22 04:51:42;;;;;;;;;8.00;6.50;;;;;18.10;52.42;101017.44;5025671;28;66964;-58
2022/05/22 04:54:08;;;;;;;;;10.00;7.00;;;;;18.10;52.47;101016.59;5032688;28;66197;-58
2022/05/22 04:56:33;;;;;;;;;8.25;8.00;;;;;18.12;52.46;101012.06;5033629;28;60277;-58
2022/05/22 04:58:58;;;;;;;;;9.75;7.00;;;;;18.13;52.22;101022.59;5021566;28;58428;-58
2022/05/22 05:01:24;;;;;;;;;10.75;8.75;;;;;18.13;52.28;101019.06;5039201;28;45178;-58
2022/05/22 05:03:49;;;;;;;;;7.25;6.00;;;;;18.16;52.34;101030.34;5029278;28;45649;-58
2022/05/22 05:06:15;;;;;;;;;11.50;8.00;;;;;18.16;52.53;101030.34;5027869;28;67907;-58
2022/05/22 05:08:40;;;;;;;;;9.50;8.50;;;;;18.18;52.18;101038.22;5032306;28;45386;-58
2022/05/22 05:11:05;;;;;;;;;11.00;9.00;;;;;18.17;52.66;101036.50;5032431;28;45645;-58
2022/05/22 05:13:31;;;;;;;;;9.50;8.00;;;;;18.19;52.49;101027.53;5031586;28;65302;-58
2022/05/22 05:16:01;;;;;;;;;9.50;7.50;;;;;18.23;52.15;101028.22;5024956;28;63818;-58
2022/05/22 05:18:27;;;;;;;;;8.00;7.75;;;;;18.22;51.98;101015.94;5022602;28;45313;-58
2022/05/22 05:20:53;;;;;;;;;11.25;9.75;;;;;18.26;52.02;101024.56;5034690;28;45498;-58
2022/05/22 05:23:19;;;;;;;;;9.75;7.75;;;;;18.29;51.83;101027.03;5026958;28;46080;-58
2022/05/22 05:25:44;;;;;;;;;13.00;8.75;;;;;18.27;52.17;101023.59;5033924;28;63867;-58
2022/05/22 05:28:09;;;;;;;;;12.00;9.50;;;;;18.31;52.09;101018.06;5037281;28;62228;-58
2022/05/22 05:30:35;;;;;;;;;9.50;9.50;;;;;18.31;52.47;101015.41;5034148;28;63470;-58
2022/05/22 05:33:00;;;;;;;;;10.50;8.00;;;;;18.36;52.34;101023.09;5038353;28;46231;-58
2022/05/22 05:35:25;;;;;;;;;13.00;10.00;;;;;18.39;52.08;101023.78;5034968;28;45215;-58
2022/05/22 05:37:51;;;;;;;;;11.25;7.50;;;;;18.40;52.34;101022.84;5029417;28;45275;-58
2022/05/22 05:40:17;;;;;;;;;9.25;9.00;;;;;18.45;51.99;101030.56;5033478;28;45435;-58
2022/05/22 05:42:42;;;;;;;;;9.50;8.00;;;;;18.46;51.92;101036.72;5035508;28;46313;-58
2022/05/22 05:45:10;;;;;;;;;11.00;8.50;;;;;18.49;51.79;101037.41;5033583;28;64857;-58
2022/05/22 05:47:35;;;;;;;;;10.00;8.00;;;;;18.48;51.67;101037.47;5035849;28;45317;-58
2022/05/22 05:50:01;;;;;;;;;9.00;9.00;;;;;18.50;51.90;101040.88;5034602;28;66311;-58
2022/05/22 05:52:26;;;;;;;;;8.25;8.00;;;;;18.49;51.72;101042.69;5029827;28;68507;-58
2022/05/22 05:54:52;;;;;;;;;11.50;10.00;;;;;18.50;51.93;101033.81;5033789;28;54077;-58
2022/05/22 05:57:17;;;;;;;;;8.50;7.00;;;;;18.54;51.64;101035.34;5033828;28;45340;-58
2022/05/22 05:59:43;;;;;;;;;10.50;9.00;;;;;18.55;51.63;101026.44;5037338;28;61463;-58
2022/05/22 06:02:14;;;;;;;;;9.25;7.25;;;;;18.62;51.65;101020.81;5036387;28;45273;-58
2022/05/22 06:04:40;;;;;;;;;9.00;8.00;;;;;18.62;51.60;101013.69;5033613;28;47246;-58
2022/05/22 06:07:06;;;;;;;;;10.00;10.00;;;;;18.66;51.63;101011.72;5026861;28;45366;-58
2022/05/22 06:09:32;;;;;;;;;12.25;9.25;;;;;18.70;51.43;101010.63;5031443;28;45513;-58
2022/05/22 06:11:57;;;;;;;;;9.75;8.75;;;;;18.73;51.63;101007.78;5033932;28;46037;-58
2022/05/22 06:14:23;;;;;;;;;10.00;10.00;;;;;18.77;51.67;101002.25;5030678;28;68934;-58
2022/05/22 06:16:50;;;;;;;;;12.00;9.75;;;;;18.84;51.37;101005.44;5041377;28;59161;-58
2022/05/22 06:19:15;;;;;;;;;9.75;7.75;;;;;18.87;51.18;100994.63;5040073;28;45460;-58
2022/05/22 06:21:43;;;;;;;;;7.00;7.00;;;;;18.92;51.14;100989.06;5041488;28;46258;-58
2022/05/22 06:24:08;;;;;;;;;9.75;9.25;;;;;18.96;51.05;100988.81;5049135;28;45294;-58
2022/05/22 06:26:33;;;;;;;;;8.50;8.25;;;;;19.03;51.20;100981.31;5029095;28;45936;-58
2022/05/22 06:28:59;;;;;;;;;10.50;7.75;;;;;19.04;51.10;100967.13;5021739;28;65263;-58
2022/05/22 06:31:24;;;;;;;;;10.25;8.50;;;;;19.13;51.01;100971.88;5040527;28;45767;-59
2022/05/22 06:33:50;;;;;;;;;10.25;10.00;;;;;19.20;50.67;100975.03;5040712;28;45315;-58
2022/05/22 06:36:15;;;;;;;;;12.00;9.00;;;;;19.25;50.94;100964.16;5039387;28;52357;-58
2022/05/22 06:41:25;;;;;;;;;12.75;9.75;;;;;19.34;50.50;100940.56;5034653;28;45412;-58
2022/05/22 06:43:51;;;;;;;;;12.00;10.00;;;;;19.39;50.42;100934.13;5037732;28;61607;-58
2022/05/22 06:46:30;;;;;;;;;10.00;8.50;;;;;19.50;50.32;100921.91;5042456;28;45322;-58
2022/05/22 06:48:55;;;;;;;;;9.75;9.00;;;;;19.59;50.03;100924.97;5040557;28;45244;-58
2022/05/22 06:51:20;;;;;;;;;9.00;8.00;;;;;19.66;49.80;100919.16;5030691;28;67358;-58
2022/05/22 06:53:47;;;;;;;;;7.00;7.00;;;;;19.72;49.67;100915.25;5044889;28;45420;-58
2022/05/22 06:56:12;;;;;;;;;8.50;7.00;;;;;19.79;49.70;100918.44;5036753;28;45209;-58
2022/05/22 06:58:37;;;;;;;;;9.50;7.00;;;;;19.83;49.64;100926.13;5035508;28;64924;-58
2022/05/22 07:01:03;;;;;;;;;8.25;8.00;;;;;19.89;49.55;100931.03;5040513;28;54577;-58
2022/05/22 07:03:28;;;;;;;;;6.75;6.75;;;;;19.97;49.09;100927.88;5026619;28;62836;-58
2022/05/22 07:05:54;;;;;;;;;6.75;6.00;;;;;20.04;48.82;100923.91;5032159;28;64468;-58
2022/05/22 07:08:19;;;;;;;;;8.00;5.75;;;;;20.11;48.48;100924.34;5035629;28;45346;-58
2022/05/22 07:13:28;;;;;;;;;6.50;6.00;;;;;20.29;47.87;100922.28;5024965;28;45265;-58
2022/05/22 07:16:01;;;;;;;;;8.25;5.50;;;;;20.36;47.75;100922.75;5020764;28;45491;-58
2022/05/22 07:18:26;;;;;;;;;6.00;5.00;;;;;20.43;47.59;100930.25;5027280;28;45605;-58
2022/05/22 07:20:52;;;;;;;;;9.75;6.75;;;;;20.46;47.37;100935.34;5035653;28;64282;-57
2022/05/22 07:23:17;;;;;;;;;6.50;5.00;;;;;20.46;47.06;100930.03;5033168;28;45450;-57
2022/05/22 07:25:43;;;;;;;;;11.00;5.25;;;;;20.54;47.19;100932.22;5033686;28;45523;-57
2022/05/22 07:28:08;;;;;;;;;6.75;4.25;;;;;20.56;46.83;100921.47;5031100;28;70142;-57
2022/05/22 07:30:33;;;;;;;;;7.75;4.00;;;;;20.56;46.63;100897.53;5039323;28;70127;-57
2022/05/22 07:32:59;;;;;;;;;11.25;9.00;;;;;20.56;46.78;100871.81;5033718;28;45691;-58
2022/05/22 07:35:24;;;;;;;;;7.25;7.00;;;;;20.56;46.62;100862.97;5038939;28;56008;-57
2022/05/22 07:37:50;;;;;;;;;3.25;3.25;;;;;20.60;46.60;100920.31;5028718;28;45309;-58
2022/05/22 07:40:15;;;;;;;;;6.00;5.50;;;;;20.60;46.51;100941.59;5030782;28;46006;-58
2022/05/22 07:42:41;;;;;;;;;5.75;5.25;;;;;20.61;46.67;100927.31;5032360;28;45980;-58
2022/05/22 07:45:07;;;;;;;;;4.75;3.00;;;;;20.64;46.27;100930.66;5020760;28;60555;-58
2022/05/22 07:47:32;;;;;;;;;4.00;4.00;;;;;20.69;46.12;100924.19;5026728;28;45340;-58
2022/05/22 07:52:41;;;;;;;;;5.50;4.00;;;;;20.89;45.96;100910.41;5030718;28;45795;-58
2022/05/22 07:55:14;;;;;;;;;4.50;3.75;;;;;21.00;45.74;100899.91;5030931;28;45444;-58
2022/05/22 07:57:42;;;;;;;;;3.00;3.00;;;;;21.14;45.48;100903.41;5039874;28;45354;-58
2022/05/22 08:00:09;;;;;;;;;4.00;4.00;;;;;21.24;45.03;100899.16;5031805;28;46070;-58
2022/05/22 08:02:35;;;;;;;;;6.00;5.00;;;;;21.31;44.94;100900.44;5037155;28;45688;-58
2022/05/22 08:05:00;;;;;;;;;5.25;5.25;;;;;21.38;45.51;100880.41;5026244;28;45214;-58
2022/05/22 08:07:25;;;;;;;;;4.00;3.25;;;;;21.40;44.97;100873.16;5024026;28;45135;-58
2022/05/22 08:09:51;;;;;;;;;6.75;5.00;;;;;21.60;44.51;100876.25;5028918;28;60800;-58
2022/05/22 08:12:17;;;;;;;;;2.00;2.00;;;;;21.74;44.34;100881.47;5039088;28;45366;-58
2022/05/22 08:14:44;;;;;;;;;3.75;2.50;;;;;21.82;43.97;100878.25;5040089;28;45241;-58
2022/05/22 08:17:10;;;;;;;;;5.00;5.00;;;;;21.92;43.17;100865.09;5028149;28;45760;-58
2022/05/22 08:19:35;;;;;;;;;6.25;3.75;;;;;22.06;43.46;100859.63;5031692;28;46409;-58
2022/05/22 08:22:01;;;;;;;;;3.00;3.00;;;;;22.19;43.54;100848.91;5033622;28;66458;-58
2022/05/22 08:24:26;;;;;;;;;4.00;2.00;;;;;22.29;43.35;100833.97;5019692;28;45435;-58
2022/05/22 08:26:51;;;;;;;;;5.25;4.00;;;;;22.41;42.77;100828.66;5030752;28;66466;-57
2022/05/22 08:29:17;;;;;;;;;2.75;2.00;;;;;22.50;41.94;100818.13;5027676;28;60896;-58
2022/05/22 08:31:42;;;;;;;;;2.00;2.00;;;;;22.60;42.58;100815.63;5029133;28;63355;-58
2022/05/22 08:34:08;;;;;;;;;6.75;4.00;;;;;22.70;42.55;100821.97;5033784;28;61512;-58
2022/05/22 08:36:33;;;;;;;;;3.00;3.00;;;;;22.81;42.23;100833.63;5037176;28;62751;-58
2022/05/22 08:38:58;;;;;;;;;2.75;2.25;;;;;22.90;41.54;100833.75;5029423;28;45328;-58
2022/05/22 08:41:34;;;;;;;;;5.25;3.75;;;;;22.98;41.67;100830.47;5031741;28;67590;-58
2022/05/22 08:44:32;;;;;;;;;3.25;2.00;;;;;23.06;41.54;100837.94;5032977;28;45434;-58
2022/05/22 08:47:17;;;;;;;;;2.75;2.75;;;;;23.14;41.54;100838.19;5014862;28;45439;-58
2022/05/22 08:49:52;;;;;;;;;4.25;2.00;;;;;23.22;41.31;100841.09;5019623;28;46297;-58
2022/05/22 08:52:31;;;;;;;;;3.50;2.50;;;;;23.30;41.00;100841.38;5030486;28;45372;-58
2022/05/22 08:55:17;;;;;;;;;7.00;3.00;;;;;23.39;41.13;100836.25;5019349;28;45416;-58
2022/05/22 09:00:29;;;;;;;;;4.00;2.00;;;;;23.55;40.55;100833.19;5021157;28;45282;-58
2022/05/22 09:02:59;;;;;;;;;102.25;85.75;;;;;23.62;40.73;100831.72;5018719;28;45766;-58
2022/05/22 09:05:28;;;;;;;;;8.00;8.00;;;;;23.74;40.11;100829.91;5006767;28;45524;-58
2022/05/22 09:08:00;;;;;;;;;3.00;3.00;;;;;23.84;40.12;100825.53;5019036;28;45527;-58
2022/05/22 09:10:41;;;;;;;;;3.00;3.00;;;;;23.92;39.71;100823.09;5030467;28;45436;-58
2022/05/22 09:13:27;;;;;;;;;7.00;2.00;;;;;24.00;39.90;100814.44;5019493;28;45686;-58
2022/05/22 09:16:03;;;;;;;;;2.25;2.25;;;;;24.09;39.00;100811.00;5021006;28;45397;-58
2022/05/22 09:18:31;;;;;;;;;2.00;2.00;;;;;24.22;39.28;100818.84;5037763;28;45372;-58
2022/05/22 09:21:17;;;;;;;;;3.75;3.00;;;;;24.31;38.66;100818.09;5037071;28;45541;-59
2022/05/22 09:23:55;;;;;;;;;2.25;2.25;;;;;24.44;38.67;100805.38;5025244;28;45320;-58
2022/05/22 09:26:46;;;;;;;;;4.25;4.00;;;;;24.47;38.50;100812.31;5027465;28;45241;-58
2022/05/22 09:29:32;;;;;;;;;3.50;3.50;;;;;24.56;38.59;100814.22;5030682;28;45364;-58
2022/05/22 09:32:13;;;;;;;;;4.50;4.50;;;;;24.59;38.47;100805.06;5035670;28;47114;-58
2022/05/22 09:35:07;;;;;;;;;4.25;4.25;;;;;24.69;38.07;100795.28;5022075;28;45265;-58
2022/05/22 09:37:39;;;;;;;;;2.25;2.25;;;;;24.90;37.96;100794.41;5030721;28;45602;-58
2022/05/22 09:40:07;;;;;;;;;3.75;2.25;;;;;25.13;37.51;100790.56;5028364;28;45246;-58
2022/05/22 09:43:15;;;;;;;;;2.25;1.25;;;;;25.20;37.23;100786.38;5031341;28;45441;-58
2022/05/22 09:45:59;;;;;;;;;1.00;1.00;;;;;25.11;36.22;100781.84;5023010;28;45709;-58
2022/05/22 09:48:43;;;;;;;;;2.25;2.25;;;;;24.99;36.74;100777.56;5021909;28;45360;-58
2022/05/22 09:51:14;;;;;;;;;1.00;1.00;;;;;24.91;36.52;100772.00;5035436;28;45392;-58
2022/05/22 09:53:55;;;;;;;;;6.00;2.50;;;;;24.83;36.99;100760.13;5029112;28;45455;-58
2022/05/22 09:56:45;;;;;;;;;4.00;3.00;;;;;24.77;36.67;100752.66;5037415;28;45340;-58
2022/05/22 09:59:13;;;;;;;;;3.75;2.00;;;;;24.63;36.83;100744.97;5026064;28;45221;-58
2022/05/22 10:01:42;;;;;;;;;4.50;3.00;;;;;24.47;36.60;100737.41;5031793;28;45464;-58
2022/05/22 10:04:07;;;;;;;;;3.00;1.50;;;;;24.40;37.02;100728.16;5026115;28;46196;-58
2022/05/22 10:06:43;;;;;;;;;3.00;3.00;;;;;24.40;37.23;100733.53;5022006;28;45474;-58
2022/05/22 10:09:35;;;;;;;;;5.00;2.00;;;;;24.32;36.58;100725.31;5024142;28;45411;-58
2022/05/22 10:12:13;;;;;;;;;3.75;3.25;;;;;24.20;36.64;100717.34;5019937;28;45472;-58
2022/05/22 10:14:56;;;;;;;;;2.00;2.00;;;;;24.05;36.89;100705.28;5021742;28;47133;-58
2022/05/22 10:18:01;;;;;;;;;28.25;22.00;;;;;24.00;36.90;100697.66;5031684;28;45771;-59
2022/05/22 10:21:03;;;;;;;;;14.50;10.00;;;;;24.05;37.54;100697.28;5000280;28;45425;-58
2022/05/22 10:23:50;;;;;;;;;5.50;4.50;;;;;24.04;37.17;100714.28;5033350;28;45526;-58
2022/05/22 10:26:26;;;;;;;;;6.00;4.50;;;;;24.05;36.90;100718.66;5041352;28;45439;-59
2022/05/22 10:28:56;;;;;;;;;4.25;3.00;;;;;24.01;37.29;100712.72;5039974;28;45760;-58
2022/05/22 10:31:28;;;;;;;;;3.25;2.50;;;;;23.94;37.15;100700.00;5029985;28;45553;-59
2022/05/22 10:34:06;;;;;;;;;3.00;3.00;;;;;23.85;37.47;100682.91;5031425;28;45500;-58
2022/05/22 10:36:41;;;;;;;;;3.50;2.25;;;;;23.80;37.98;100680.63;5035884;28;45220;-58
2022/05/22 10:39:09;;;;;;;;;3.00;2.25;;;;;23.68;37.98;100673.59;5038507;28;45313;-58
2022/05/22 10:44:43;;;;;;;;;3.25;3.25;;;;;23.68;38.09;100654.91;5030683;28;45261;-58
2022/05/22 10:47:09;;;;;;;;;5.75;3.75;;;;;23.62;37.97;100634.91;5036632;28;46412;-58
2022/05/22 10:49:43;;;;;;;;;3.25;3.00;;;;;23.53;38.22;100632.13;5029592;28;64506;-58
2022/05/22 10:52:11;;;;;;;;;5.00;3.00;;;;;23.42;38.37;100633.88;5028616;28;45364;-58
2022/05/22 10:54:50;;;;;;;;;4.00;3.25;;;;;23.38;38.27;100635.09;5034386;28;45507;-58
2022/05/22 10:57:18;;;;;;;;;2.00;2.00;;;;;23.34;38.17;100625.66;5035120;28;47233;-58
2022/05/22 10:59:45;;;;;;;;;9.75;3.75;;;;;23.31;38.44;100610.72;5037202;28;45394;-58
2022/05/22 11:02:23;;;;;;;;;4.75;4.75;;;;;23.33;38.43;100613.28;5038304;28;45344;-58
2022/05/22 11:04:50;;;;;;;;;6.00;5.00;;;;;23.38;38.81;100620.91;5036504;28;45329;-58
2022/05/22 11:07:42;;;;;;;;;4.50;4.00;;;;;23.39;38.92;100620.78;5035733;28;45479;-58
2022/05/22 11:10:08;;;;;;;;;7.25;6.00;;;;;23.40;38.42;100632.31;5029602;28;45692;-58
2022/05/22 11:12:34;;;;;;;;;21.00;17.75;;;;;23.35;38.71;100626.50;5035859;28;45293;-58
2022/05/22 11:15:26;;;;;;;;;3.00;3.00;;;;;23.29;38.12;100620.69;5040663;28;45481;-58
2022/05/22 11:18:09;;;;;;;;;4.00;4.00;;;;;23.18;38.49;100626.06;5025069;28;47206;-58
2022/05/22 11:20:38;;;;;;;;;4.00;3.75;;;;;23.13;38.39;100617.59;5033965;28;45706;-58
2022/05/22 11:23:12;;;;;;;;;3.75;3.75;;;;;23.10;38.90;100620.50;5030166;28;45468;-58
2022/05/22 11:25:53;;;;;;;;;4.00;2.50;;;;;23.08;39.29;100628.63;5037447;28;45380;-58
2022/05/22 11:28:37;;;;;;;;;4.50;3.25;;;;;;;;5035043;28;45701;-58
2022/05/22 11:31:17;;;;;;;;;4.25;4.25;;;;;23.00;40.72;100639.06;5026839;28;45788;-58
2022/05/22 11:34:04;;;;;;;;;5.75;3.00;;;;;22.98;41.00;100632.13;5028075;28;45510;-59
2022/05/22 11:36:30;;;;;;;;;4.50;4.50;;;;;22.99;40.84;100620.50;5039165;28;45333;-58
2022/05/22 11:39:09;;;;;;;;;4.00;2.33;;;;;23.00;40.41;100615.06;5039273;28;46216;-58
2022/05/22 11:41:36;;;;;;;;;4.00;4.00;;;;;23.03;40.99;100613.94;5032992;28;45325;-58
2022/05/22 11:44:53;;;;;;;;;6.75;4.00;;;;;22.98;40.82;100616.97;5030139;28;45609;-58
2022/05/22 11:47:27;;;;;;;;;6.25;4.75;;;;;22.93;41.65;100620.03;5007368;28;45320;-58
2022/05/22 11:49:58;;;;;;;;;9.25;5.50;;;;;22.91;42.01;100621.09;5037876;28;48393;-58
2022/05/22 11:55:30;;;;;;;;;6.25;5.00;;;;;22.97;41.94;100627.78;5043100;28;45392;-58